Terminal Aerodrome Forecast
Issued by NWS

Home | Current Version | Previous Version | Text Only | Print | Product List | Glossary On
Versions: 1 2 3 4 5 6 7 8 9 10 11 12 13 14 15
000
FTUS42 TJSJ 211700 RRA
TAFJSJ
TAF
TJSJ 211756Z 2118/2218 05012G20KT P6SM VCTS SCT030 SCT050CB
     FM212200 10006KT P6SM FEW030 SCT070
     FM221300 08012KT P6SM SCT025=

USA.gov is the U.S. government's official web portal to all federal, state and local government web resources and services.